createdAt,value
2023-01-28T14:51:00.105Z,65.28
2023-01-28T14:53:36.503Z,64.82
2023-01-28T14:56:11.506Z,64.83
2023-01-28T14:58:41.824Z,65.17
2023-01-28T15:01:20.534Z,65.48
2023-01-28T15:03:48.761Z,65.08
2023-01-28T15:06:17.688Z,65.37
2023-01-28T15:08:47.127Z,65.46
2023-01-28T15:11:17.574Z,65.32
2023-01-28T15:13:47.033Z,65.57
2023-01-28T15:16:19.356Z,65.39
2023-01-28T15:18:48.376Z,64.72
2023-01-28T15:21:20.390Z,65.31
2023-01-28T15:23:50.839Z,65.86
2023-01-28T15:26:21.039Z,65.68
2023-01-28T15:28:49.559Z,65.64
2023-01-28T15:31:21.114Z,65.33
2023-01-28T15:33:57.192Z,65.88
2023-01-28T15:36:26.566Z,66.39
2023-01-28T15:38:56.146Z,66.16
2023-01-28T15:41:25.503Z,65.39
2023-01-28T15:43:54.074Z,65.48
2023-01-28T15:46:22.189Z,66.00
2023-01-28T15:48:52.449Z,65.67
2023-01-28T15:51:21.691Z,65.89
2023-01-28T15:53:51.491Z,65.81
2023-01-28T15:56:25.831Z,65.41
2023-01-28T15:58:54.025Z,65.45
2023-01-28T16:01:22.289Z,65.48
2023-01-28T16:04:01.913Z,65.31
2023-01-28T16:06:35.915Z,65.38
2023-01-28T16:09:05.177Z,66.04
2023-01-28T16:11:37.404Z,65.80
2023-01-28T16:14:05.688Z,65.39
2023-01-28T16:16:35.450Z,65.75
2023-01-28T16:19:05.532Z,66.15
2023-01-28T16:21:35.042Z,66.53
2023-01-28T16:24:04.540Z,66.87
2023-01-28T16:26:33.571Z,66.57
2023-01-28T16:29:13.295Z,66.65
2023-01-28T16:31:41.432Z,67.04
2023-01-28T16:34:10.450Z,67.09
2023-01-28T16:36:38.653Z,67.03
2023-01-28T16:39:06.812Z,67.18
2023-01-28T16:41:36.496Z,67.40
2023-01-28T16:44:06.922Z,66.67
2023-01-28T16:46:35.224Z,67.04
2023-01-28T16:49:03.894Z,67.23
2023-01-28T16:51:32.514Z,67.51
2023-01-28T16:54:00.770Z,67.73
2023-01-28T16:56:44.552Z,67.88
2023-01-28T16:59:16.375Z,67.65
2023-01-28T17:01:45.206Z,67.47
2023-01-28T17:04:13.603Z,67.83
2023-01-28T17:06:43.513Z,68.08
2023-01-28T17:09:11.887Z,68.10
2023-01-28T17:11:41.012Z,67.99
2023-01-28T17:14:09.235Z,68.29
2023-01-28T17:16:39.092Z,68.28
2023-01-28T17:19:07.492Z,68.35
2023-01-28T17:21:35.786Z,68.80
2023-01-28T17:24:04.259Z,68.42
2023-01-28T17:26:34.080Z,68.77
2023-01-28T17:29:02.289Z,68.55
2023-01-28T17:31:30.516Z,68.60
2023-01-28T17:34:00.399Z,68.54
2023-01-28T17:36:28.768Z,69.36
2023-01-28T17:38:56.783Z,68.98
2023-01-28T17:41:24.784Z,68.97
2023-01-28T17:43:53.604Z,68.99
2023-01-28T17:46:22.897Z,69.01
2023-01-28T17:48:51.187Z,68.68
2023-01-28T17:51:20.730Z,68.65
2023-01-28T17:53:48.978Z,68.95
2023-01-28T17:56:18.252Z,68.35
2023-01-28T17:58:49.948Z,68.35
2023-01-28T18:01:18.330Z,68.47
2023-01-28T18:03:46.615Z,68.40
2023-01-28T18:06:14.784Z,68.63
2023-01-28T18:08:44.293Z,68.68
2023-01-28T18:11:13.233Z,68.75
2023-01-28T18:13:41.880Z,69.13
2023-01-28T18:16:14.823Z,69.13
2023-01-28T18:18:43.008Z,68.91
2023-01-28T18:21:19.863Z,68.74
2023-01-28T18:23:49.794Z,68.83
2023-01-28T18:26:17.884Z,68.70
2023-01-28T18:28:45.914Z,68.84
2023-01-28T18:31:14.048Z,69.02
2023-01-28T18:33:42.327Z,69.31
2023-01-28T18:36:11.235Z,69.23
2023-01-28T18:38:39.284Z,69.39
2023-01-28T18:41:08.759Z,70.00
2023-01-28T18:43:37.079Z,69.47
2023-01-28T18:46:11.145Z,70.01
2023-01-28T18:48:39.473Z,70.31
2023-01-28T18:51:12.338Z,70.04
2023-01-28T18:53:45.696Z,70.22
2023-01-28T18:56:15.219Z,69.73
2023-01-28T18:58:43.344Z,69.98
2023-01-28T19:01:12.411Z,70.30
2023-01-28T19:03:40.461Z,70.50
2023-01-28T19:06:09.889Z,70.15
2023-01-28T19:08:38.412Z,70.26
2023-01-28T19:11:06.499Z,70.02
2023-01-28T19:13:35.907Z,70.04
2023-01-28T19:16:04.338Z,70.01
2023-01-28T19:18:32.769Z,70.23
2023-01-28T19:21:02.903Z,70.14
2023-01-28T19:23:40.968Z,70.18
2023-01-28T19:26:21.150Z,70.36
2023-01-28T19:28:51.175Z,69.97
2023-01-28T19:31:20.836Z,69.97
2023-01-28T19:33:49.645Z,70.04
2023-01-28T19:36:17.634Z,69.83
2023-01-28T19:38:45.923Z,69.97
2023-01-28T19:41:16.326Z,70.09
2023-01-28T19:43:44.464Z,70.02
2023-01-28T19:46:15.757Z,70.36
2023-01-28T19:48:44.095Z,69.80
2023-01-28T19:51:12.840Z,69.62
2023-01-28T19:53:41.700Z,69.71
2023-01-28T19:56:10.740Z,69.40
2023-01-28T19:58:39.712Z,69.70
2023-01-28T20:01:08.601Z,69.81
2023-01-28T20:03:38.117Z,69.58
2023-01-28T20:06:06.963Z,70.08
2023-01-28T20:08:35.007Z,70.38
2023-01-28T20:11:03.579Z,69.95
2023-01-28T20:13:32.098Z,70.17
2023-01-28T20:16:00.420Z,70.45
2023-01-28T20:18:28.748Z,70.29
2023-01-28T20:20:58.189Z,70.10
2023-01-28T20:23:26.322Z,70.12
2023-01-28T20:25:55.412Z,70.15
2023-01-28T20:28:24.201Z,70.14
2023-01-28T20:30:52.894Z,70.14
2023-01-28T20:33:21.323Z,69.90
2023-01-28T20:35:49.772Z,69.87
2023-01-28T20:38:19.132Z,69.80
2023-01-28T20:40:47.570Z,70.65
2023-01-28T20:43:15.928Z,70.41
2023-01-28T20:45:44.119Z,70.35
2023-01-28T20:48:12.211Z,70.52
2023-01-28T20:50:40.470Z,70.46
2023-01-28T20:53:08.629Z,70.46
2023-01-28T20:55:38.028Z,70.68
2023-01-28T20:58:06.178Z,70.93
2023-01-28T21:00:34.244Z,70.69
2023-01-28T21:03:02.339Z,70.87
2023-01-28T21:05:30.405Z,71.09
2023-01-28T21:07:58.479Z,70.77
2023-01-28T21:10:26.552Z,70.69
2023-01-28T21:12:56.151Z,70.19
2023-01-28T21:15:24.236Z,70.37
2023-01-28T21:17:52.316Z,70.67
2023-01-28T21:20:20.358Z,69.99
2023-01-28T21:22:51.367Z,70.29
2023-01-28T21:25:19.675Z,70.29
2023-01-28T21:27:47.729Z,70.38
2023-01-28T21:30:18.367Z,70.37
2023-01-28T21:32:46.949Z,69.50
2023-01-28T21:35:15.149Z,70.23
2023-01-28T21:37:46.081Z,69.64
2023-01-28T21:40:14.695Z,70.31
2023-01-28T21:42:43.651Z,70.23
2023-01-28T21:45:12.261Z,70.36
2023-01-28T21:47:41.783Z,70.62
2023-01-28T21:50:10.350Z,70.19
2023-01-28T21:52:38.422Z,70.28
2023-01-28T21:55:06.867Z,70.61
2023-01-28T21:57:34.942Z,70.52
2023-01-28T22:00:02.069Z,70.48
2023-01-28T22:02:39.719Z,71.01
2023-01-28T22:05:09.477Z,70.70
2023-01-28T22:07:37.543Z,70.83
2023-01-28T22:10:05.749Z,71.41
2023-01-28T22:12:33.823Z,71.17
2023-01-28T22:15:01.946Z,71.45
2023-01-28T22:17:31.615Z,71.51
2023-01-28T22:19:59.694Z,71.56
2023-01-28T22:22:29.109Z,71.29
2023-01-28T22:24:57.101Z,71.14
2023-01-28T22:27:27.161Z,71.65
2023-01-28T22:29:57.559Z,71.68
2023-01-28T22:32:26.814Z,71.04
2023-01-28T22:34:54.764Z,71.28
2023-01-28T22:37:22.825Z,71.45
2023-01-28T22:39:54.434Z,71.27
2023-01-28T22:42:24.059Z,71.70
2023-01-28T22:44:52.218Z,71.45
2023-01-28T22:47:20.328Z,71.53
2023-01-28T22:49:48.380Z,71.40
2023-01-28T22:52:16.410Z,71.87
2023-01-28T22:54:44.538Z,71.80
2023-01-28T22:57:13.983Z,71.73
2023-01-28T22:59:45.908Z,71.71
2023-01-28T23:02:19.292Z,71.64
2023-01-28T23:04:47.487Z,71.95
2023-01-28T23:07:15.566Z,71.92
2023-01-28T23:09:44.842Z,71.59
2023-01-28T23:12:14.233Z,71.95
2023-01-28T23:14:59.857Z,71.45
2023-01-28T23:17:45.025Z,71.66
2023-01-28T23:20:30.820Z,71.79
2023-01-28T23:23:16.420Z,71.86
2023-01-28T23:25:44.458Z,71.08
2023-01-28T23:28:14.025Z,71.12
2023-01-28T23:30:42.237Z,71.28
2023-01-28T23:33:10.582Z,71.23
2023-01-28T23:35:38.739Z,72.04
2023-01-28T23:38:06.901Z,71.45
2023-01-28T23:40:34.954Z,71.80
2023-01-28T23:43:04.613Z,71.34
2023-01-28T23:45:34.188Z,71.42
2023-01-28T23:48:04.406Z,71.07
2023-01-28T23:50:32.462Z,71.15
2023-01-28T23:53:01.440Z,71.40
2023-01-28T23:55:29.580Z,71.03
2023-01-28T23:57:57.583Z,70.68
